ENEV Airport Information

Runway Information
Runway 17 Length 9236 ft width 148 ft
Elevation 81 ft Threshold 302 ft Heading 178
Runway 35 Length 9236 ft Width 148 ft
Elevation 80 ft Threshold 214 ft Heading 358
Airport Frequencies
Type ACC Name BODO CON Frequency 126.45 MHZ
Type ATIS Name ATIS Frequency 126.025 MHZ
Type TWR Name TWR Frequency 118 MHZ
Airport Navaids
Type VOR-DME Name Evenes Frequency 117350 KHZ
Type TACAN Name Evenes Frequency 134000 KHZ
Type NDB Name Odden Frequency 365 KHZ
Airport Weather Information & NOTAM
ADDS - METARS form results

(0101 UTC 05 December 2021)
Data provider http://aviationweather.gov/metar/data/
 
METAR text: ENEV 050050Z AUTO 00000KT 9999 NCD M13/M17 Q1020 RMK WIND 1400FT 19012KT
Conditions at: ENEV (EVENES (CIV/MIL), NO) observed 0050 UTC 05 December 2021
Temperature: -13.0°C ( 9°F)
Dewpoint: -17.0°C ( 1°F) [RH = 72%]
Pressure (altimeter): 30.12 inches Hg (1020.0 mb)
Winds: calm
Visibility: 6 or more miles (10+ km)
Ceiling: at least 12,000 feet AGL
Clouds: sky clear below 12,000 feet AGL
Weather: no significant weather observed at this time

METAR text: ENEV 050020Z VRB02KT CAVOK M14/M16 Q1020 RMK WIND 1400FT 19013KT
Conditions at: ENEV (EVENES (CIV/MIL), NO) observed 0020 UTC 05 December 2021
Temperature: -14.0°C ( 7°F)
Dewpoint: -16.0°C ( 3°F) [RH = 85%]
Pressure (altimeter): 30.12 inches Hg (1020.0 mb)
Winds: variable direction winds at 2 MPH (2 knots; 1.0 m/s)
Visibility: 6 or more miles (10+ km)
Ceiling: ceiling and visibility are OK
Clouds: unknown
Weather: no significant weather observed at this time